Time;durP1;ratioP1;P1;durP2;ratioP2;P2;SDS_P1;SDS_P2;PMS_P1;PMS_P2;Temp;Humidity;BMP_temperature;BMP_pressure;BME280_temperature;BME280_humidity;BME280_pressure;Samples;Min_cycle;Max_cycle;Signal;HPM_P1;HPM_P2
2024/04/16 00:01:04;;;;;;;7.22;1.63;;;9.00;99.90;;;;;;5454363;26;20009;-87
2024/04/16 00:03:34;;;;;;;7.00;1.63;;;9.00;99.90;;;;;;5457476;26;20013;-88
2024/04/16 00:06:00;;;;;;;9.88;2.40;;;8.90;99.90;;;;;;5457599;26;20010;-90
2024/04/16 00:08:26;;;;;;;12.25;2.38;;;9.00;99.90;;;;;;5457445;26;19995;-88
2024/04/16 00:10:51;;;;;;;7.38;2.53;;;8.90;99.90;;;;;;5457723;26;20427;-89
2024/04/16 00:13:17;;;;;;;10.35;2.05;;;8.90;99.90;;;;;;5457502;26;20045;-88
2024/04/16 00:15:42;;;;;;;10.13;2.55;;;8.90;99.90;;;;;;5456323;26;20013;-88
2024/04/16 00:18:08;;;;;;;7.35;2.03;;;8.80;99.90;;;;;;5457383;26;20013;-89
2024/04/16 00:20:34;;;;;;;7.03;1.85;;;8.70;99.90;;;;;;5460002;26;20049;-88
2024/04/16 00:22:59;;;;;;;18.48;3.10;;;8.70;99.90;;;;;;5478824;26;20002;-89
2024/04/16 00:25:25;;;;;;;9.52;1.67;;;8.60;99.90;;;;;;5460074;26;20007;-88
2024/04/16 00:27:50;;;;;;;10.10;2.13;;;8.90;99.90;;;;;;5457385;26;20462;-88
2024/04/16 00:30:16;;;;;;;10.48;2.22;;;8.60;99.90;;;;;;5456447;26;20011;-88
2024/04/16 00:32:41;;;;;;;6.95;3.08;;;8.60;99.90;;;;;;5457033;26;20365;-89
2024/04/16 00:35:07;;;;;;;10.57;1.35;;;8.50;99.90;;;;;;5456948;26;19999;-89
2024/04/16 00:37:33;;;;;;;8.25;1.75;;;8.50;99.90;;;;;;5456491;26;20003;-87
2024/04/16 00:39:58;;;;;;;6.03;1.80;;;9.50;99.90;;;;;;5457202;26;20449;-88
2024/04/16 00:42:24;;;;;;;6.40;1.00;;;8.40;99.90;;;;;;5456726;26;20373;-88
2024/04/16 00:44:49;;;;;;;9.43;2.30;;;8.40;99.90;;;;;;5456435;26;20495;-89
2024/04/16 00:47:16;;;;;;;4.72;0.95;;;8.30;99.90;;;;;;5457055;26;20007;-90
2024/04/16 00:49:43;;;;;;;4.45;1.05;;;8.40;99.90;;;;;;5456848;26;20002;-89
2024/04/16 00:52:09;;;;;;;3.95;0.93;;;8.20;99.90;;;;;;5456071;26;20009;-88
2024/04/16 00:54:34;;;;;;;6.55;0.82;;;8.00;99.90;;;;;;5457256;26;20003;-88
2024/04/16 00:57:01;;;;;;;1.60;0.70;;;7.80;99.90;;;;;;5455978;26;20469;-88
2024/04/16 00:59:29;;;;;;;2.97;1.00;;;7.70;99.90;;;;;;5456514;26;20010;-89
2024/04/16 01:01:55;;;;;;;4.95;0.85;;;7.60;99.90;;;;;;5456561;26;20009;-89
2024/04/16 01:04:22;;;;;;;8.60;1.33;;;7.60;99.90;;;;;;5455801;26;20365;-87
2024/04/16 01:06:51;;;;;;;8.25;1.08;;;7.50;99.90;;;;;;5457166;26;20020;-88
2024/04/16 01:09:18;;;;;;;8.43;2.17;;;7.60;99.90;;;;;;5456834;26;20006;-88
2024/04/16 01:11:47;;;;;;;8.02;1.60;;;7.60;99.90;;;;;;5455300;26;20462;-88
2024/04/16 01:14:13;;;;;;;7.68;1.15;;;8.00;99.90;;;;;;5455017;26;19999;-88
2024/04/16 01:16:38;;;;;;;7.60;1.50;;;8.00;99.90;;;;;;5456477;26;20056;-88
2024/04/16 01:19:06;;;;;;;7.85;1.42;;;7.70;99.90;;;;;;5455988;26;20007;-88
2024/04/16 01:21:31;;;;;;;12.95;1.65;;;7.70;99.90;;;;;;5456195;26;20542;-89
2024/04/16 01:23:57;;;;;;;7.05;1.92;;;7.80;99.90;;;;;;5456932;26;20011;-89
2024/04/16 01:26:22;;;;;;;7.57;2.03;;;7.80;99.90;;;;;;5455821;26;20056;-89
2024/04/16 01:28:48;;;;;;;14.02;1.60;;;7.90;99.90;;;;;;5455929;26;20006;-89
2024/04/16 01:31:14;;;;;;;13.98;2.85;;;8.00;99.90;;;;;;5456141;26;20010;-88
2024/04/16 01:33:40;;;;;;;8.02;1.75;;;8.00;99.90;;;;;;5455694;26;20002;-88
2024/04/16 01:36:06;;;;;;;13.65;1.98;;;8.10;99.90;;;;;;5456249;26;20454;-89
2024/04/16 01:38:31;;;;;;;13.50;2.38;;;8.10;99.90;;;;;;5456285;26;20010;-88
2024/04/16 01:40:57;;;;;;;7.63;2.15;;;8.10;99.90;;;;;;5470445;26;20017;-89
2024/04/16 01:43:23;;;;;;;7.82;1.23;;;8.10;99.90;;;;;;5456487;26;19998;-87
2024/04/16 01:45:48;;;;;;;2.05;0.60;;;8.00;99.90;;;;;;5456149;26;20003;-89
2024/04/16 01:48:14;;;;;;;0.95;0.30;;;7.70;99.90;;;;;;5455489;26;19999;-89
2024/04/16 01:50:39;;;;;;;2.95;0.40;;;7.50;99.90;;;;;;5455839;26;20003;-89
2024/04/16 01:53:05;;;;;;;0.93;0.32;;;7.20;99.90;;;;;;5456110;26;20365;-89
2024/04/16 01:55:34;;;;;;;2.17;0.40;;;7.10;99.90;;;;;;5455451;26;20003;-88
2024/04/16 01:57:59;;;;;;;3.53;0.50;;;6.90;99.90;;;;;;5455947;26;20003;-88
2024/04/16 02:00:25;;;;;;;2.22;0.40;;;6.80;99.90;;;;;;5455277;26;20005;-89
2024/04/16 02:02:51;;;;;;;1.40;0.40;;;6.80;99.90;;;;;;5456139;26;19999;-89
2024/04/16 02:05:16;;;;;;;6.40;0.50;;;7.10;99.90;;;;;;5456136;26;20333;-88
2024/04/16 02:07:42;;;;;;;4.47;0.80;;;6.70;99.90;;;;;;5455609;26;20071;-89
2024/04/16 02:10:13;;;;;;;4.43;0.70;;;6.70;99.90;;;;;;5455783;26;20438;-88
2024/04/16 02:12:39;;;;;;;5.28;1.00;;;6.70;99.90;;;;;;5455814;26;20005;-89
2024/04/16 02:15:06;;;;;;;1.17;0.40;;;6.70;99.90;;;;;;5454954;26;20002;-89
2024/04/16 02:17:31;;;;;;;1.65;0.60;;;6.70;99.90;;;;;;5455661;26;20009;-88
2024/04/16 02:19:57;;;;;;;2.42;0.70;;;6.60;99.90;;;;;;5455600;26;19999;-88
2024/04/16 02:22:23;;;;;;;1.27;0.40;;;6.60;99.90;;;;;;5454792;26;19999;-88
2024/04/16 02:24:48;;;;;;;3.15;0.60;;;6.50;99.90;;;;;;5454947;26;20013;-88
2024/04/16 02:27:14;;;;;;;1.27;0.30;;;6.50;99.90;;;;;;5455739;26;19995;-88
2024/04/16 02:29:39;;;;;;;2.08;0.70;;;6.50;99.90;;;;;;5454757;26;20469;-88
2024/04/16 02:32:05;;;;;;;3.65;0.50;;;6.50;99.90;;;;;;5455558;26;20010;-89
2024/04/16 02:34:31;;;;;;;1.15;0.50;;;6.60;99.90;;;;;;5455774;26;20010;-89
2024/04/16 02:36:56;;;;;;;2.75;0.40;;;6.60;99.90;;;;;;5454705;26;20360;-88
2024/04/16 02:39:22;;;;;;;2.50;0.55;;;6.60;99.90;;;;;;5455024;26;20074;-88
2024/04/16 02:41:47;;;;;;;1.13;0.40;;;6.70;99.90;;;;;;5455132;26;19995;-88
2024/04/16 02:44:16;;;;;;;1.77;0.50;;;6.70;99.90;;;;;;5454742;26;20454;-89
2024/04/16 02:46:41;;;;;;;1.85;0.70;;;6.80;99.90;;;;;;5455125;26;20027;-88
2024/04/16 02:49:07;;;;;;;1.77;0.60;;;6.80;99.90;;;;;;5455059;26;20018;-88
2024/04/16 02:51:33;;;;;;;7.90;1.20;;;6.80;99.90;;;;;;5454657;26;20003;-89
2024/04/16 02:53:58;;;;;;;4.85;0.88;;;6.80;99.90;;;;;;5455261;26;19999;-89
2024/04/16 02:56:24;;;;;;;6.18;0.80;;;6.80;99.90;;;;;;5455347;26;20007;-89
2024/04/16 02:58:52;;;;;;;1.83;0.55;;;6.90;99.90;;;;;;5465003;26;20007;-88
2024/04/16 03:01:18;;;;;;;1.60;0.73;;;6.80;99.90;;;;;;5461386;26;19998;-90
2024/04/16 03:03:43;;;;;;;10.60;0.98;;;7.00;99.90;;;;;;5454736;26;20010;-89
2024/04/16 03:06:09;;;;;;;7.40;0.77;;;7.00;99.90;;;;;;5454705;26;20007;-89
2024/04/16 03:08:34;;;;;;;8.23;1.58;;;7.10;99.90;;;;;;5454843;26;20010;-89
2024/04/16 03:11:01;;;;;;;9.48;1.23;;;7.10;99.90;;;;;;5454354;26;19995;-89
2024/04/16 03:13:27;;;;;;;5.47;1.48;;;7.20;99.90;;;;;;5455025;26;20002;-88
2024/04/16 03:15:53;;;;;;;3.53;1.02;;;7.90;99.90;;;;;;5455986;26;20017;-88
2024/04/16 03:18:18;;;;;;;4.18;1.70;;;7.30;99.90;;;;;;5454583;26;20472;-89
2024/04/16 03:20:45;;;;;;;7.57;1.52;;;7.40;99.90;;;;;;5455101;26;20445;-90
2024/04/16 03:23:10;;;;;;;13.30;1.80;;;7.40;99.90;;;;;;5455204;26;20003;-88
2024/04/16 03:25:43;;;;;;;7.20;1.88;;;7.50;99.90;;;;;;5454266;26;19999;-88
2024/04/16 03:28:08;;;;;;;18.00;3.35;;;7.50;99.90;;;;;;5455169;26;20007;-89
2024/04/16 03:30:34;;;;;;;13.70;2.25;;;7.60;99.90;;;;;;5455603;26;20075;-89
2024/04/16 03:32:59;;;;;;;10.07;2.20;;;7.70;99.90;;;;;;5454823;26;20067;-88
2024/04/16 03:35:25;;;;;;;10.90;1.65;;;7.70;99.90;;;;;;5454128;26;20001;-89
2024/04/16 03:37:51;;;;;;;6.60;1.60;;;7.70;99.90;;;;;;5455071;26;20015;-89
2024/04/16 03:40:16;;;;;;;6.75;1.80;;;7.80;99.90;;;;;;5454469;26;20014;-88
2024/04/16 03:42:42;;;;;;;6.18;1.85;;;7.80;99.90;;;;;;5457777;26;20009;-90
2024/04/16 03:45:07;;;;;;;8.68;1.80;;;7.90;99.90;;;;;;5461332;26;20455;-88
2024/04/16 03:47:33;;;;;;;16.25;2.42;;;7.90;99.90;;;;;;5454149;26;19995;-88
2024/04/16 03:49:58;;;;;;;11.63;2.80;;;7.90;99.90;;;;;;5454365;26;20075;-89
2024/04/16 03:52:25;;;;;;;9.63;1.60;;;7.90;99.90;;;;;;5454211;26;20009;-88
2024/04/16 03:54:50;;;;;;;9.32;1.70;;;7.80;99.90;;;;;;5453400;26;19999;-88
2024/04/16 03:57:16;;;;;;;7.63;1.67;;;7.80;99.90;;;;;;5453917;26;20338;-88
2024/04/16 04:02:40;;;;;;;6.88;1.83;;;7.70;99.90;;;;;;5413256;26;20014;-88
2024/04/16 04:05:06;;;;;;;6.47;1.30;;;7.60;99.90;;;;;;5453823;26;19998;-88
2024/04/16 04:07:31;;;;;;;3.92;0.88;;;7.50;99.90;;;;;;5453509;26;19999;-89
2024/04/16 04:09:57;;;;;;;2.92;0.50;;;7.50;99.90;;;;;;5454369;26;19999;-88
2024/04/16 04:12:22;;;;;;;3.13;0.60;;;7.40;99.90;;;;;;5454198;26;19999;-89
2024/04/16 04:14:48;;;;;;;0.57;0.38;;;7.20;99.90;;;;;;5453630;26;19999;-88
2024/04/16 04:17:13;;;;;;;3.92;0.82;;;7.10;99.90;;;;;;5460335;26;20027;-87
2024/04/16 04:19:39;;;;;;;4.13;1.33;;;7.10;99.90;;;;;;5470915;26;19995;-88
2024/04/16 04:22:05;;;;;;;5.80;1.02;;;7.10;99.90;;;;;;5456353;26;19999;-88
2024/04/16 04:24:30;;;;;;;6.88;1.10;;;7.00;99.90;;;;;;5455585;26;19999;-87
2024/04/16 04:26:56;;;;;;;4.07;1.15;;;7.00;99.90;;;;;;5455695;26;19999;-87
2024/04/16 04:29:21;;;;;;;3.50;0.80;;;6.90;99.90;;;;;;5454831;26;20006;-88
2024/04/16 04:31:47;;;;;;;1.90;0.80;;;6.90;99.90;;;;;;5453226;26;19999;-87
2024/04/16 04:34:12;;;;;;;2.97;0.75;;;6.90;99.90;;;;;;5452953;26;19999;-88
2024/04/16 04:36:38;;;;;;;7.13;0.68;;;6.90;99.90;;;;;;5452646;26;19999;-88
2024/04/16 04:39:04;;;;;;;3.85;0.85;;;6.90;99.90;;;;;;5453165;26;19999;-88
2024/04/16 04:41:30;;;;;;;2.75;0.50;;;6.80;99.90;;;;;;5453163;26;20323;-88
2024/04/16 04:43:56;;;;;;;3.38;0.70;;;6.90;99.90;;;;;;5452878;26;20010;-89
2024/04/16 04:46:22;;;;;;;1.58;0.40;;;6.80;99.90;;;;;;5454034;26;20003;-88
2024/04/16 04:48:48;;;;;;;2.05;0.60;;;6.80;99.90;;;;;;5456808;26;19995;-90
2024/04/16 04:51:14;;;;;;;5.28;0.70;;;6.90;99.90;;;;;;5456105;26;20391;-88
2024/04/16 04:53:39;;;;;;;7.80;0.80;;;6.90;99.90;;;;;;5456771;26;19995;-89
2024/04/16 04:56:07;;;;;;;6.28;1.08;;;7.70;99.90;;;;;;5456357;26;20009;-88
2024/04/16 04:58:33;;;;;;;9.70;1.50;;;7.00;99.90;;;;;;5456862;26;20438;-88
2024/04/16 05:00:59;;;;;;;6.68;0.80;;;7.00;99.90;;;;;;5456380;26;20032;-89
2024/04/16 05:03:25;;;;;;;2.55;1.17;;;7.10;99.90;;;;;;5456112;26;19999;-88
2024/04/16 05:05:50;;;;;;;9.20;0.90;;;7.10;99.90;;;;;;5456896;26;20002;-89
2024/04/16 05:08:18;;;;;;;5.07;1.20;;;7.40;99.90;;;;;;5456494;26;20071;-90
2024/04/16 05:10:49;;;;;;;13.00;2.33;;;7.20;99.90;;;;;;5455936;26;20038;-88
2024/04/16 05:13:14;;;;;;;10.13;1.85;;;7.30;99.90;;;;;;5456495;26;20027;-88
2024/04/16 05:15:40;;;;;;;11.80;2.92;;;7.40;99.90;;;;;;5456398;26;20010;-88
2024/04/16 05:18:06;;;;;;;22.80;2.92;;;7.60;99.90;;;;;;5456780;26;19999;-89
2024/04/16 05:20:31;;;;;;;9.77;2.53;;;7.70;99.90;;;;;;5456437;26;19998;-89
2024/04/16 05:22:57;;;;;;;18.45;3.72;;;8.60;99.90;;;;;;5456444;26;19998;-89
2024/04/16 05:25:23;;;;;;;13.57;2.85;;;8.00;99.90;;;;;;5456359;26;20076;-89
2024/04/16 05:27:49;;;;;;;18.60;2.92;;;8.10;99.90;;;;;;5456579;26;20071;-89
2024/04/16 05:30:16;;;;;;;15.88;2.80;;;8.20;99.90;;;;;;5456637;26;20011;-89
2024/04/16 05:32:41;;;;;;;20.27;3.45;;;8.30;99.90;;;;;;5455930;26;20036;-89
2024/04/16 05:35:07;;;;;;;20.88;3.53;;;8.30;99.90;;;;;;5456715;26;19998;-88
2024/04/16 05:37:32;;;;;;;13.95;3.20;;;8.30;99.90;;;;;;5475485;26;20009;-89
2024/04/16 05:39:59;;;;;;;19.95;3.00;;;8.40;99.90;;;;;;5468496;26;19998;-90
2024/04/16 05:42:27;;;;;;;17.20;2.58;;;9.10;99.90;;;;;;5457020;26;20461;-89
2024/04/16 05:45:03;;;;;;;14.40;3.88;;;8.40;99.90;;;;;;5456375;26;19999;-89
2024/04/16 05:47:28;;;;;;;18.63;3.47;;;8.50;99.90;;;;;;5455708;26;20435;-89
2024/04/16 05:49:54;;;;;;;25.35;3.40;;;8.70;99.90;;;;;;5456103;26;20075;-87
2024/04/16 05:52:19;;;;;;;15.13;2.60;;;8.60;99.90;;;;;;5455443;26;20462;-90
2024/04/16 05:54:45;;;;;;;15.77;2.50;;;9.50;99.90;;;;;;5455987;26;20013;-88
2024/04/16 05:57:11;;;;;;;20.92;2.88;;;9.50;99.90;;;;;;5455979;26;19999;-89
2024/04/16 05:59:36;;;;;;;19.50;2.90;;;8.70;99.90;;;;;;5454726;26;20014;-87
2024/04/16 06:02:02;;;;;;;8.18;1.92;;;8.70;99.90;;;;;;5455969;26;20025;-89
2024/04/16 06:04:27;;;;;;;15.98;2.33;;;8.70;99.90;;;;;;5455847;26;20006;-89
2024/04/16 06:06:53;;;;;;;20.88;2.65;;;8.70;99.90;;;;;;5455276;26;19994;-89
2024/04/16 06:09:19;;;;;;;12.07;2.33;;;8.80;99.90;;;;;;5456155;26;20018;-89
2024/04/16 06:11:44;;;;;;;11.50;2.13;;;8.70;99.90;;;;;;5455735;26;19994;-89
2024/04/16 06:14:10;;;;;;;10.05;2.10;;;8.80;99.90;;;;;;5455509;26;20011;-89
2024/04/16 06:16:35;;;;;;;11.20;2.55;;;9.40;99.90;;;;;;5456362;26;20397;-88
2024/04/16 06:19:10;;;;;;;15.38;2.28;;;9.90;99.90;;;;;;5457354;26;19998;-89
2024/04/16 06:21:44;;;;;;;10.95;3.05;;;8.80;99.90;;;;;;5457078;26;19994;-89
2024/04/16 06:24:10;;;;;;;10.38;2.47;;;10.00;99.90;;;;;;5455590;26;20031;-89
2024/04/16 06:26:35;;;;;;;16.67;2.53;;;8.90;99.90;;;;;;5455995;26;20011;-89
2024/04/16 06:29:02;;;;;;;15.75;3.45;;;8.90;99.90;;;;;;5454525;26;20014;-88
2024/04/16 06:31:27;;;;;;;24.70;3.35;;;9.00;99.90;;;;;;5455842;26;20003;-89
2024/04/16 06:33:53;;;;;;;17.38;2.70;;;9.00;99.90;;;;;;5455918;26;20472;-88
2024/04/16 06:36:19;;;;;;;13.73;3.20;;;9.00;99.90;;;;;;5455014;26;20017;-89
2024/04/16 06:38:44;;;;;;;14.65;2.92;;;8.90;99.90;;;;;;5455580;26;20022;-89
2024/04/16 06:41:10;;;;;;;9.15;2.25;;;8.90;99.90;;;;;;5455370;26;20010;-89
2024/04/16 06:43:36;;;;;;;11.63;2.22;;;8.90;99.90;;;;;;5455790;26;20445;-88
2024/04/16 06:46:02;;;;;;;11.98;1.60;;;8.80;99.90;;;;;;5455972;26;20076;-90
2024/04/16 06:48:30;;;;;;;13.02;1.73;;;8.90;99.90;;;;;;5455927;26;20330;-89
2024/04/16 06:50:56;;;;;;;7.78;2.65;;;8.80;99.90;;;;;;5455521;26;20462;-90
2024/04/16 06:53:21;;;;;;;13.50;3.00;;;9.20;99.90;;;;;;5455987;26;20022;-91
2024/04/16 06:56:01;;;;;;;9.95;1.88;;;8.80;99.90;;;;;;5456174;26;20011;-90
2024/04/16 06:58:29;;;;;;;11.48;2.03;;;8.90;99.90;;;;;;5469950;26;19999;-89
2024/04/16 07:00:55;;;;;;;15.02;2.35;;;8.90;99.90;;;;;;5471950;26;19999;-91
2024/04/16 07:03:21;;;;;;;16.17;2.60;;;9.00;99.90;;;;;;5456141;26;20017;-91
2024/04/16 07:05:47;;;;;;;15.55;2.78;;;9.10;99.90;;;;;;5456071;26;20034;-90
2024/04/16 07:08:13;;;;;;;16.50;2.70;;;10.10;99.90;;;;;;5457585;26;20011;-90
2024/04/16 07:10:38;;;;;;;11.85;2.60;;;9.20;99.90;;;;;;5453314;26;20003;-91
2024/04/16 07:13:04;;;;;;;20.35;3.10;;;9.20;99.90;;;;;;5455754;26;20075;-90
2024/04/16 07:15:30;;;;;;;17.60;2.65;;;9.30;99.90;;;;;;5455111;26;20052;-90
2024/04/16 07:17:56;;;;;;;12.48;2.60;;;9.30;99.90;;;;;;5454211;26;20400;-90
2024/04/16 07:20:22;;;;;;;16.77;2.85;;;9.30;99.90;;;;;;5455168;26;20045;-89
2024/04/16 07:22:48;;;;;;;21.38;2.97;;;9.30;99.90;;;;;;5454893;26;20100;-88
2024/04/16 07:25:13;;;;;;;19.50;2.67;;;9.20;99.90;;;;;;5454043;26;20069;-89
2024/04/16 07:27:39;;;;;;;15.63;2.78;;;9.20;99.90;;;;;;5455689;26;20438;-90
2024/04/16 07:30:05;;;;;;;14.02;2.40;;;9.20;99.90;;;;;;5455944;26;20003;-89
2024/04/16 07:32:31;;;;;;;16.60;3.08;;;9.20;99.90;;;;;;5455358;26;20408;-90
2024/04/16 07:34:57;;;;;;;20.88;2.78;;;9.10;99.90;;;;;;5456106;26;20072;-90
2024/04/16 07:37:22;;;;;;;12.68;2.72;;;9.30;99.90;;;;;;5455699;26;20022;-89
2024/04/16 07:39:48;;;;;;;12.13;2.33;;;9.10;99.90;;;;;;5454860;26;20002;-90
2024/04/16 07:42:14;;;;;;;21.13;3.75;;;9.10;99.90;;;;;;5455611;26;19998;-89
2024/04/16 07:44:41;;;;;;;20.05;3.70;;;9.10;99.90;;;;;;5455991;26;20010;-89
2024/04/16 07:47:07;;;;;;;12.25;2.58;;;9.10;99.90;;;;;;5455924;26;20007;-90
2024/04/16 07:49:33;;;;;;;14.43;2.58;;;9.20;99.90;;;;;;5461863;26;20080;-89
2024/04/16 07:51:58;;;;;;;11.38;1.98;;;9.30;99.90;;;;;;5461275;26;20011;-89
2024/04/16 07:54:24;;;;;;;6.20;1.58;;;9.30;99.90;;;;;;5463039;26;20070;-89
2024/04/16 07:56:52;;;;;;;10.50;2.15;;;9.10;99.90;;;;;;5454546;26;20511;-89
2024/04/16 07:59:19;;;;;;;9.77;2.58;;;9.10;99.90;;;;;;5453820;26;19999;-90
2024/04/16 08:01:45;;;;;;;15.80;2.15;;;9.10;99.90;;;;;;5454202;26;20046;-90
2024/04/16 08:04:10;;;;;;;7.80;2.65;;;9.10;99.90;;;;;;5454514;26;19999;-90
2024/04/16 08:06:36;;;;;;;18.60;2.92;;;9.10;99.90;;;;;;5453738;26;20360;-89
2024/04/16 08:09:02;;;;;;;12.20;2.83;;;9.20;99.90;;;;;;5455667;26;19999;-91
2024/04/16 08:11:28;;;;;;;14.02;3.63;;;9.30;99.90;;;;;;5453963;26;20002;-90
2024/04/16 08:13:54;;;;;;;8.85;1.92;;;10.00;99.90;;;;;;5459379;26;19999;-89
2024/04/16 08:16:20;;;;;;;12.75;2.45;;;9.40;99.90;;;;;;5470890;26;19999;-91
2024/04/16 08:18:46;;;;;;;6.18;2.22;;;9.40;99.90;;;;;;5457826;26;20031;-90
2024/04/16 08:21:12;;;;;;;9.57;2.05;;;9.50;99.90;;;;;;5454032;26;20003;-90
2024/04/16 08:23:37;;;;;;;12.48;2.00;;;9.50;99.90;;;;;;5457706;26;20442;-89
2024/04/16 08:26:05;;;;;;;14.95;2.53;;;9.50;99.90;;;;;;5458130;26;20031;-90
2024/04/16 08:28:31;;;;;;;10.07;2.83;;;9.60;99.90;;;;;;5457694;26;20462;-89
2024/04/16 08:31:00;;;;;;;16.95;2.75;;;9.60;99.90;;;;;;5457479;26;20018;-89
2024/04/16 08:33:26;;;;;;;14.95;3.22;;;9.60;99.90;;;;;;5457837;26;19999;-90
2024/04/16 08:35:53;;;;;;;23.65;3.67;;;9.60;99.90;;;;;;5457403;26;20051;-90
2024/04/16 08:38:19;;;;;;;14.80;2.85;;;9.60;99.90;;;;;;5457397;26;20018;-90
2024/04/16 08:40:45;;;;;;;11.70;2.67;;;9.60;99.90;;;;;;5457961;26;20033;-90
2024/04/16 08:43:11;;;;;;;13.00;3.13;;;9.70;99.90;;;;;;5459020;26;19998;-91
2024/04/16 08:45:37;;;;;;;19.08;2.97;;;9.70;99.90;;;;;;5457601;26;20019;-89
2024/04/16 08:48:05;;;;;;;14.32;3.13;;;9.70;99.90;;;;;;5457771;26;20071;-90
2024/04/16 08:50:33;;;;;;;9.73;2.80;;;9.70;99.90;;;;;;5456788;26;20015;-89
2024/04/16 08:53:00;;;;;;;13.55;3.05;;;10.10;99.90;;;;;;5457159;26;19994;-90
2024/04/16 08:55:26;;;;;;;16.30;2.97;;;9.60;99.90;;;;;;5456480;26;20003;-90
2024/04/16 08:57:53;;;;;;;17.13;3.20;;;9.60;99.90;;;;;;5456994;26;20002;-89
2024/04/16 09:00:20;;;;;;;14.30;2.97;;;10.30;99.90;;;;;;5457062;26;20003;-89
2024/04/16 09:02:46;;;;;;;14.27;2.45;;;9.90;99.90;;;;;;5456705;26;20071;-90
2024/04/16 09:05:11;;;;;;;15.15;2.92;;;9.70;99.90;;;;;;5457121;26;19999;-89
2024/04/16 09:07:40;;;;;;;11.18;2.50;;;9.60;99.90;;;;;;5457050;26;20472;-90
2024/04/16 09:10:22;;;;;;;14.02;3.00;;;9.70;99.90;;;;;;5456899;26;19995;-89
2024/04/16 09:12:49;;;;;;;15.10;2.67;;;9.70;99.90;;;;;;5457161;26;19999;-90
2024/04/16 09:15:16;;;;;;;16.55;3.03;;;9.80;99.90;;;;;;5456791;26;20019;-90
2024/04/16 09:17:48;;;;;;;9.02;2.33;;;9.80;99.90;;;;;;5456401;26;20009;-90
2024/04/16 09:20:19;;;;;;;13.15;2.83;;;9.90;99.90;;;;;;5456549;26;19999;-89
2024/04/16 09:22:49;;;;;;;17.65;3.20;;;9.90;99.90;;;;;;5456620;26;19995;-88
2024/04/16 09:25:16;;;;;;;13.32;3.63;;;9.90;99.90;;;;;;5456186;26;19995;-91
2024/04/16 09:27:46;;;;;;;10.23;2.00;;;10.00;99.90;;;;;;5456852;26;20469;-89
2024/04/16 09:30:12;;;;;;;11.07;2.95;;;9.90;99.90;;;;;;5456819;26;19999;-89
2024/04/16 09:32:39;;;;;;;11.50;2.70;;;9.90;99.90;;;;;;5459760;26;20002;-90
2024/04/16 09:35:05;;;;;;;13.77;3.05;;;9.90;99.90;;;;;;5472371;26;20007;-90
2024/04/16 09:37:31;;;;;;;10.18;1.83;;;9.90;99.90;;;;;;5457858;26;20017;-89
2024/04/16 09:39:59;;;;;;;11.48;2.10;;;9.80;99.90;;;;;;5456413;26;19991;-89
2024/04/16 09:42:26;;;;;;;6.63;2.00;;;9.60;99.90;;;;;;5456228;26;20072;-89
2024/04/16 09:44:52;;;;;;;8.80;1.70;;;9.50;99.90;;;;;;5456073;26;19994;-89
2024/04/16 09:47:18;;;;;;;4.65;1.10;;;9.30;99.90;;;;;;5456725;26;19999;-90
2024/04/16 09:49:44;;;;;;;7.80;1.30;;;9.20;99.90;;;;;;5456108;26;20075;-88
2024/04/16 09:52:12;;;;;;;5.45;1.08;;;9.10;99.90;;;;;;5455850;26;20014;-90
2024/04/16 09:54:40;;;;;;;6.38;1.35;;;9.00;99.90;;;;;;5456452;26;19999;-89
2024/04/16 09:57:07;;;;;;;4.03;1.23;;;9.00;99.90;;;;;;5457398;26;20003;-89
2024/04/16 09:59:33;;;;;;;10.85;1.73;;;9.30;99.90;;;;;;5455609;26;19995;-90
2024/04/16 10:02:01;;;;;;;10.95;1.73;;;9.30;99.90;;;;;;5456215;26;20534;-90
2024/04/16 10:04:27;;;;;;;15.02;2.78;;;9.10;99.90;;;;;;5456226;26;20442;-90
2024/04/16 10:06:52;;;;;;;11.90;1.80;;;9.20;99.90;;;;;;5455586;26;20017;-90
2024/04/16 10:09:19;;;;;;;7.72;1.77;;;9.30;99.90;;;;;;5456171;26;19998;-89
2024/04/16 10:11:48;;;;;;;21.60;3.15;;;9.30;99.90;;;;;;5455891;26;19999;-90
2024/04/16 10:14:15;;;;;;;12.80;2.38;;;9.30;99.90;;;;;;5455454;26;20450;-89
2024/04/16 10:16:41;;;;;;;16.85;2.60;;;9.30;99.90;;;;;;5455482;26;20010;-89
2024/04/16 10:19:06;;;;;;;14.77;2.30;;;9.30;99.90;;;;;;5456429;26;20006;-90
2024/04/16 10:21:39;;;;;;;14.88;2.20;;;9.30;99.90;;;;;;5455682;26;20021;-89
2024/04/16 10:24:09;;;;;;;9.20;2.63;;;9.40;99.90;;;;;;5455842;26;20071;-90
2024/04/16 10:26:37;;;;;;;9.57;2.50;;;9.40;99.90;;;;;;5455097;26;20075;-90
2024/04/16 10:29:02;;;;;;;15.63;2.58;;;9.40;99.90;;;;;;5455773;26;19999;-89
2024/04/16 10:31:38;;;;;;;9.38;2.40;;;9.70;99.90;;;;;;5455617;26;20009;-90
2024/04/16 10:34:03;;;;;;;14.48;2.50;;;9.50;99.90;;;;;;5455085;26;20388;-89
2024/04/16 10:36:30;;;;;;;20.00;2.88;;;9.60;99.90;;;;;;5455511;26;20006;-89
2024/04/16 10:38:56;;;;;;;10.07;1.77;;;9.60;99.90;;;;;;5455752;26;20009;-89
2024/04/16 10:41:28;;;;;;;15.25;3.63;;;9.60;99.90;;;;;;5454949;26;20003;-89
2024/04/16 10:43:56;;;;;;;7.72;1.58;;;9.60;99.90;;;;;;5455781;26;19994;-90
2024/04/16 10:46:25;;;;;;;17.30;3.03;;;9.70;99.90;;;;;;5455159;26;20007;-89
2024/04/16 10:48:52;;;;;;;8.25;2.17;;;10.20;99.90;;;;;;5455643;26;19999;-89
2024/04/16 10:51:17;;;;;;;6.10;1.77;;;9.70;99.90;;;;;;5458192;26;20011;-89
2024/04/16 10:53:43;;;;;;;7.35;1.48;;;9.70;99.90;;;;;;5471412;26;20071;-89
2024/04/16 10:56:09;;;;;;;9.52;1.70;;;9.70;99.90;;;;;;5457006;26;20014;-89
2024/04/16 10:58:35;;;;;;;13.13;2.05;;;9.70;99.90;;;;;;5456058;26;19995;-90
2024/04/16 11:01:01;;;;;;;9.25;2.72;;;9.70;99.90;;;;;;5456489;26;20010;-91
2024/04/16 11:03:27;;;;;;;14.50;2.42;;;9.80;99.90;;;;;;5455610;26;20067;-88
2024/04/16 11:05:56;;;;;;;13.85;2.42;;;9.70;99.90;;;;;;5455757;26;20011;-88
2024/04/16 11:08:22;;;;;;;14.38;2.72;;;9.80;99.90;;;;;;5455382;26;19999;-88
2024/04/16 11:10:49;;;;;;;9.13;2.40;;;9.80;99.90;;;;;;5455030;26;20013;-88
2024/04/16 11:13:16;;;;;;;7.45;2.08;;;9.70;99.90;;;;;;5455574;26;19999;-90
2024/04/16 11:15:43;;;;;;;13.30;2.88;;;9.70;99.90;;;;;;5455141;26;19999;-90
2024/04/16 11:18:09;;;;;;;10.85;1.55;;;9.70;99.90;;;;;;5454742;26;19998;-90
2024/04/16 11:20:35;;;;;;;14.23;2.50;;;9.70;99.90;;;;;;5455253;26;20002;-89
2024/04/16 11:23:01;;;;;;;14.70;1.92;;;9.80;99.90;;;;;;5456656;26;20003;-89
2024/04/16 11:25:30;;;;;;;17.60;3.17;;;9.80;99.90;;;;;;5456089;26;20450;-90
2024/04/16 11:27:56;;;;;;;12.67;2.37;;;9.90;99.90;;;;;;5470484;26;20002;-89
2024/04/16 11:30:22;;;;;;;16.67;2.22;;;10.00;99.90;;;;;;5459745;26;20002;-89
2024/04/16 11:32:48;;;;;;;11.20;2.30;;;10.10;99.90;;;;;;5455841;26;20481;-89
2024/04/16 11:35:13;;;;;;;6.30;1.65;;;10.10;99.90;;;;;;5455287;26;20434;-90
2024/04/16 11:37:40;;;;;;;10.38;2.03;;;10.10;99.90;;;;;;5454859;26;20334;-89
2024/04/16 11:40:06;;;;;;;7.43;2.22;;;10.10;99.90;;;;;;5456637;26;19998;-90
2024/04/16 11:42:32;;;;;;;6.65;2.55;;;10.20;99.90;;;;;;5458194;26;20010;-89
2024/04/16 11:44:59;;;;;;;9.93;2.20;;;10.10;99.90;;;;;;5455514;26;19999;-90
2024/04/16 11:47:25;;;;;;;13.48;3.42;;;10.10;99.90;;;;;;5460259;26;20006;-88
2024/04/16 11:49:50;;;;;;;9.38;3.08;;;10.00;99.90;;;;;;5465559;26;19998;-88
2024/04/16 11:52:16;;;;;;;9.20;2.58;;;9.90;99.90;;;;;;5463889;26;19998;-89
2024/04/16 11:54:41;;;;;;;13.02;2.70;;;9.80;99.90;;;;;;5458049;26;19998;-89
2024/04/16 11:57:07;;;;;;;13.50;3.17;;;9.70;99.90;;;;;;5458343;26;19999;-87
2024/04/16 11:59:36;;;;;;;11.20;2.55;;;9.60;99.90;;;;;;5459811;26;20434;-87
2024/04/16 12:02:03;;;;;;;16.55;3.63;;;9.60;99.90;;;;;;5459959;26;20001;-87
2024/04/16 12:04:29;;;;;;;14.82;4.10;;;9.50;99.90;;;;;;5463018;26;19998;-88
2024/04/16 12:06:56;;;;;;;26.13;3.97;;;9.50;99.90;;;;;;5458994;26;20391;-88
2024/04/16 12:09:21;;;;;;;17.83;4.00;;;9.50;99.90;;;;;;5463017;26;20003;-89
2024/04/16 12:11:47;;;;;;;23.70;4.55;;;9.60;99.90;;;;;;5458634;26;20434;-90
2024/04/16 12:14:13;;;;;;;14.48;3.60;;;10.60;99.90;;;;;;5457740;26;19999;-89
2024/04/16 12:16:40;;;;;;;23.50;5.15;;;9.80;99.90;;;;;;5458159;26;19995;-89
2024/04/16 12:19:06;;;;;;;22.55;4.07;;;9.90;99.90;;;;;;5458529;26;20460;-88
2024/04/16 12:21:32;;;;;;;21.90;4.68;;;10.00;99.90;;;;;;5457638;26;19999;-89
2024/04/16 12:23:58;;;;;;;13.73;4.13;;;10.10;99.90;;;;;;5457946;26;20006;-89
2024/04/16 12:26:23;;;;;;;30.40;4.05;;;10.10;99.90;;;;;;5456904;26;19999;-89
2024/04/16 12:28:49;;;;;;;17.55;3.60;;;10.10;99.90;;;;;;5457803;26;19995;-89
2024/04/16 12:31:15;;;;;;;20.50;3.85;;;10.00;99.90;;;;;;5457844;26;20002;-88
2024/04/16 12:33:42;;;;;;;15.10;3.35;;;10.00;99.90;;;;;;5476255;26;19999;-89
2024/04/16 12:36:09;;;;;;;12.75;3.03;;;10.00;99.90;;;;;;5470953;26;20006;-88
2024/04/16 12:38:35;;;;;;;19.77;3.40;;;10.00;99.90;;;;;;5458003;26;20003;-88
2024/04/16 12:41:00;;;;;;;10.75;2.75;;;10.50;99.90;;;;;;5456264;26;20079;-89
2024/04/16 12:43:26;;;;;;;16.50;3.72;;;9.90;99.90;;;;;;5457534;26;19995;-89
2024/04/16 12:45:59;;;;;;;15.63;3.47;;;9.30;99.90;;;;;;5457408;26;20017;-90
2024/04/16 12:48:26;;;;;;;10.48;3.22;;;10.00;99.90;;;;;;5456524;26;20010;-88